createdAt,value
2018-02-10T00:00:16.640Z,44.17
2018-02-10T00:02:45.231Z,46.90
2018-02-10T00:05:16.398Z,52.20
2018-02-10T00:07:44.660Z,54.00
2018-02-10T00:10:15.867Z,50.60
2018-02-10T00:12:44.140Z,49.77
2018-02-10T00:15:16.827Z,52.50
2018-02-10T00:17:45.130Z,49.87
2018-02-10T00:20:15.979Z,47.97
2018-02-10T00:22:50.702Z,58.77
2018-02-10T00:25:18.978Z,49.47
2018-02-10T00:27:47.304Z,44.77
2018-02-10T00:30:16.700Z,55.50
2018-02-10T00:32:45.003Z,56.50
2018-02-10T00:35:17.025Z,46.50
2018-02-10T00:37:45.342Z,51.63
2018-02-10T00:40:16.380Z,50.80
2018-02-10T00:42:44.662Z,53.00
2018-02-10T00:45:15.254Z,56.97
2018-02-10T00:47:43.542Z,53.07
2018-02-10T00:50:16.589Z,55.03
2018-02-10T00:52:44.852Z,49.30
2018-02-10T00:55:16.581Z,48.10
2018-02-10T00:57:44.853Z,47.90
2018-02-10T01:00:15.518Z,45.53
2018-02-10T01:02:43.919Z,49.57
2018-02-10T01:05:18.670Z,44.00
2018-02-10T01:07:46.919Z,43.90
2018-02-10T01:10:16.693Z,48.63
2018-02-10T01:12:44.950Z,52.00
2018-02-10T01:15:19.227Z,47.00
2018-02-10T01:17:47.486Z,41.57
2018-02-10T01:20:16.515Z,45.70
2018-02-10T01:22:44.777Z,40.33
2018-02-10T01:25:16.453Z,37.20
2018-02-10T01:27:44.751Z,33.20
2018-02-10T01:30:16.702Z,42.47
2018-02-10T01:32:45.138Z,42.77
2018-02-10T01:35:16.859Z,42.40
2018-02-10T01:37:45.172Z,40.83
2018-02-10T01:40:16.822Z,40.10
2018-02-10T01:42:45.087Z,45.13
2018-02-10T01:45:16.393Z,47.53
2018-02-10T01:47:44.667Z,47.13
2018-02-10T01:50:21.819Z,41.93
2018-02-10T01:52:50.092Z,45.27
2018-02-10T01:55:18.359Z,48.07
2018-02-10T01:57:46.619Z,56.37
2018-02-10T02:00:14.905Z,47.27
2018-02-10T02:02:43.182Z,47.73
2018-02-10T02:05:11.462Z,52.40
2018-02-10T02:07:39.738Z,49.10
2018-02-10T02:10:16.586Z,50.47
2018-02-10T02:12:44.852Z,49.77
2018-02-10T02:15:14.559Z,53.90
2018-02-10T02:17:42.828Z,42.10
2018-02-10T02:20:15.120Z,54.70
2018-02-10T02:22:43.377Z,50.63
2018-02-10T02:25:16.628Z,51.43
2018-02-10T02:27:44.899Z,49.27
2018-02-10T02:30:13.592Z,48.70
2018-02-10T02:32:41.850Z,46.10
2018-02-10T02:35:15.958Z,42.97
2018-02-10T02:37:44.221Z,49.10
2018-02-10T02:40:16.662Z,45.87
2018-02-10T02:42:44.935Z,43.63
2018-02-10T02:45:26.744Z,38.80
2018-02-10T02:47:55.050Z,41.43
2018-02-10T02:50:23.321Z,36.27
2018-02-10T02:52:51.597Z,41.90
2018-02-10T02:55:19.871Z,38.83
2018-02-10T02:57:48.144Z,40.73
2018-02-10T03:00:17.578Z,42.93
2018-02-10T03:02:46.490Z,38.30
2018-02-10T03:05:15.518Z,42.23
2018-02-10T03:07:43.773Z,44.93
2018-02-10T03:10:16.340Z,40.90
2018-02-10T03:12:44.606Z,44.87
2018-02-10T03:15:15.102Z,46.63
2018-02-10T03:17:44.122Z,46.10
2018-02-10T03:20:16.466Z,52.73
2018-02-10T03:22:44.742Z,47.73
2018-02-10T03:25:16.611Z,44.77
2018-02-10T03:27:44.882Z,49.33
2018-02-10T03:30:15.662Z,41.87
2018-02-10T03:32:43.924Z,42.37
2018-02-10T03:35:15.063Z,45.63
2018-02-10T03:37:43.318Z,43.03
2018-02-10T03:40:17.581Z,46.10
2018-02-10T03:42:45.897Z,50.17
2018-02-10T03:45:14.164Z,50.80
2018-02-10T03:47:42.417Z,44.47
2018-02-10T03:50:15.898Z,52.87
2018-02-10T03:52:44.170Z,42.53
2018-02-10T03:55:16.454Z,42.87
2018-02-10T03:57:45.520Z,38.60
2018-02-10T04:00:16.905Z,43.08
2018-02-10T04:02:45.205Z,51.20
2018-02-10T04:05:18.809Z,44.57
2018-02-10T04:07:47.076Z,43.83
2018-02-10T04:10:16.034Z,48.40
2018-02-10T04:12:44.297Z,41.37
2018-02-10T04:15:15.806Z,49.77
2018-02-10T04:17:44.072Z,42.20
2018-02-10T04:20:16.424Z,43.00
2018-02-10T04:22:44.698Z,43.47
2018-02-10T04:25:16.566Z,40.90
2018-02-10T04:27:44.829Z,41.57
2018-02-10T04:30:16.712Z,44.73
2018-02-10T04:32:44.964Z,41.70
2018-02-10T04:35:16.029Z,39.27
2018-02-10T04:37:44.294Z,43.97
2018-02-10T04:40:16.277Z,40.03
2018-02-10T04:42:44.538Z,42.30
2018-02-10T04:45:15.773Z,46.13
2018-02-10T04:47:44.030Z,47.70
2018-02-10T04:50:16.190Z,48.20
2018-02-10T04:52:44.450Z,47.03
2018-02-10T04:55:16.785Z,51.73
2018-02-10T04:57:45.038Z,48.03
2018-02-10T05:00:13.425Z,47.17
2018-02-10T05:02:41.715Z,49.20
2018-02-10T05:05:16.402Z,40.87
2018-02-10T05:07:44.899Z,52.20
2018-02-10T05:10:16.913Z,44.97
2018-02-10T05:12:45.183Z,48.23
2018-02-10T05:15:16.081Z,53.13
2018-02-10T05:17:44.555Z,51.10
2018-02-10T05:20:15.769Z,44.60
2018-02-10T05:22:44.030Z,43.00
2018-02-10T05:25:15.730Z,52.83
2018-02-10T05:27:43.999Z,46.53
2018-02-10T05:30:16.533Z,40.67
2018-02-10T05:32:44.796Z,49.00
2018-02-10T05:35:17.285Z,50.50
2018-02-10T05:37:45.557Z,39.87
2018-02-10T05:40:16.852Z,44.47
2018-02-10T05:42:45.118Z,43.73
2018-02-10T05:45:16.317Z,45.47
2018-02-10T05:47:44.577Z,49.53
2018-02-10T05:50:15.521Z,50.83
2018-02-10T05:52:43.781Z,51.20
2018-02-10T05:55:16.714Z,44.90
2018-02-10T05:57:45.003Z,47.90
2018-02-10T06:00:16.789Z,48.40
2018-02-10T06:02:45.051Z,43.20
2018-02-10T06:05:16.754Z,48.90
2018-02-10T06:07:45.023Z,49.30
2018-02-10T06:10:17.030Z,51.30
2018-02-10T06:12:45.325Z,61.43
2018-02-10T06:15:17.107Z,45.17
2018-02-10T06:17:45.383Z,50.30
2018-02-10T06:20:16.615Z,51.13
2018-02-10T06:22:44.918Z,56.33
2018-02-10T06:25:16.076Z,44.20
2018-02-10T06:27:44.465Z,49.00
2018-02-10T06:30:16.135Z,50.27
2018-02-10T06:32:44.445Z,49.03
2018-02-10T06:35:16.333Z,51.67
2018-02-10T06:37:44.610Z,52.07
2018-02-10T06:40:16.630Z,51.10
2018-02-10T06:42:44.906Z,58.90
2018-02-10T06:45:16.501Z,60.70
2018-02-10T06:47:44.779Z,52.53
2018-02-10T06:50:15.620Z,56.53
2018-02-10T06:52:43.897Z,56.37
2018-02-10T06:55:14.812Z,62.50
2018-02-10T06:57:43.079Z,56.57
2018-02-10T07:00:16.667Z,56.13
2018-02-10T07:02:45.091Z,60.63
2018-02-10T07:05:15.934Z,51.10
2018-02-10T07:07:44.558Z,70.72
2018-02-10T07:10:16.330Z,69.80
2018-02-10T07:12:44.931Z,63.30
2018-02-10T07:15:16.367Z,61.95
2018-02-10T07:17:44.928Z,64.68
2018-02-10T07:20:13.977Z,54.63
2018-02-10T07:22:42.641Z,59.58
2018-02-10T07:25:16.679Z,60.25
2018-02-10T07:27:45.030Z,58.37
2018-02-10T07:30:16.688Z,61.13
2018-02-10T07:32:44.966Z,66.33
2018-02-10T07:35:17.494Z,82.10
2018-02-10T07:37:46.202Z,67.70
2018-02-10T07:40:15.372Z,59.47
2018-02-10T07:42:43.635Z,59.10
2018-02-10T07:45:16.547Z,54.53
2018-02-10T07:47:45.171Z,56.63
2018-02-10T07:50:17.006Z,56.53
2018-02-10T07:52:45.333Z,55.17
2018-02-10T07:55:22.061Z,59.40
2018-02-10T07:57:50.337Z,52.93
2018-02-10T08:00:18.644Z,48.97
2018-02-10T08:02:47.192Z,57.28
2018-02-10T08:05:16.542Z,51.65
2018-02-10T08:07:45.107Z,61.08
2018-02-10T08:10:16.842Z,44.85
2018-02-10T08:12:45.409Z,39.50
2018-02-10T08:15:16.485Z,42.60
2018-02-10T08:17:44.775Z,39.30
2018-02-10T08:20:16.717Z,37.37
2018-02-10T08:22:45.026Z,37.47
2018-02-10T08:25:16.358Z,45.07
2018-02-10T08:27:44.609Z,46.13
2018-02-10T08:30:17.189Z,37.33
2018-02-10T08:32:45.286Z,56.73
2018-02-10T08:35:17.364Z,42.00
2018-02-10T08:37:45.790Z,43.23
2018-02-10T08:40:16.230Z,39.47
2018-02-10T08:42:44.539Z,36.23
2018-02-10T08:45:14.501Z,37.78
2018-02-10T08:47:43.042Z,55.38
2018-02-10T08:50:13.334Z,44.60
2018-02-10T08:52:41.910Z,41.90
2018-02-10T08:55:15.588Z,47.07
2018-02-10T08:57:43.866Z,36.57
2018-02-10T09:00:13.255Z,43.20
2018-02-10T09:02:42.441Z,40.17
2018-02-10T09:05:14.590Z,33.22
2018-02-10T09:07:42.869Z,56.90
2018-02-10T09:10:11.201Z,99.47
2018-02-10T09:12:39.516Z,179.73
2018-02-10T09:15:15.094Z,71.67
2018-02-10T09:17:43.746Z,53.33
2018-02-10T09:20:12.344Z,51.67
2018-02-10T09:22:40.617Z,37.90
2018-02-10T09:25:13.864Z,45.27
2018-02-10T09:27:42.966Z,49.07
2018-02-10T09:30:16.919Z,42.03
2018-02-10T09:32:45.499Z,42.67
2018-02-10T09:35:14.045Z,36.45
2018-02-10T09:37:42.313Z,43.03
2018-02-10T09:40:10.580Z,40.20
2018-02-10T09:42:38.875Z,50.77
2018-02-10T09:45:11.030Z,44.90
2018-02-10T09:47:40.330Z,48.28
2018-02-10T09:50:10.611Z,44.10
2018-02-10T09:52:39.285Z,49.30
2018-02-10T09:55:09.818Z,50.27
2018-02-10T09:57:38.969Z,40.10
2018-02-10T10:00:09.645Z,51.97
2018-02-10T10:02:37.905Z,43.07
2018-02-10T10:05:10.095Z,51.95
2018-02-10T10:07:38.963Z,50.90
2018-02-10T10:10:07.215Z,49.77
2018-02-10T10:12:35.988Z,51.53
2018-02-10T10:15:04.291Z,44.80
2018-02-10T10:17:32.854Z,43.75
2018-02-10T10:20:01.856Z,46.83
2018-02-10T10:22:31.041Z,51.93
2018-02-10T10:25:00.014Z,38.03
2018-02-10T10:27:28.265Z,47.40
2018-02-10T10:29:56.509Z,50.37
2018-02-10T10:32:24.783Z,66.50
2018-02-10T10:34:53.045Z,50.60
2018-02-10T10:37:21.321Z,50.80
2018-02-10T10:39:49.595Z,45.97
2018-02-10T10:42:17.879Z,44.27
2018-02-10T10:44:46.158Z,54.20
2018-02-10T10:47:14.425Z,43.10
2018-02-10T10:49:42.685Z,44.80
2018-02-10T10:52:10.971Z,46.67
2018-02-10T10:54:39.422Z,47.57
2018-02-10T10:57:08.461Z,39.87
2018-02-10T10:59:36.711Z,39.33
2018-02-10T11:02:04.986Z,45.70
2018-02-10T11:04:33.262Z,42.43
2018-02-10T11:07:02.514Z,46.67
2018-02-10T11:09:30.768Z,42.00
2018-02-10T11:12:00.441Z,48.00
2018-02-10T11:14:28.710Z,42.67
2018-02-10T11:16:56.975Z,44.47
2018-02-10T11:19:25.245Z,52.87
2018-02-10T11:21:54.358Z,48.27
2018-02-10T11:24:24.030Z,38.63
2018-02-10T11:26:52.286Z,38.33
2018-02-10T11:29:20.545Z,43.93
2018-02-10T11:31:48.801Z,42.37
2018-02-10T11:34:17.073Z,46.57
2018-02-10T11:36:45.628Z,44.77
2018-02-10T11:39:13.868Z,41.23
2018-02-10T11:41:42.140Z,50.80
2018-02-10T11:44:10.985Z,45.30
2018-02-10T11:46:39.236Z,57.13
2018-02-10T11:49:07.500Z,44.87
2018-02-10T11:51:36.016Z,44.87
2018-02-10T11:54:04.421Z,48.10
2018-02-10T11:56:33.321Z,47.80
2018-02-10T11:59:01.590Z,42.97
2018-02-10T12:01:29.845Z,54.73
2018-02-10T12:04:00.675Z,56.87
2018-02-10T12:06:28.939Z,49.00
2018-02-10T12:08:57.202Z,48.17
2018-02-10T12:11:25.486Z,49.00
2018-02-10T12:13:54.380Z,41.27
2018-02-10T12:16:22.688Z,43.37
2018-02-10T12:18:51.087Z,54.37
2018-02-10T12:21:19.357Z,53.87
2018-02-10T12:23:48.320Z,52.70
2018-02-10T12:26:16.575Z,50.73
2018-02-10T12:28:44.829Z,49.40
2018-02-10T12:31:13.086Z,50.07
2018-02-10T12:33:41.339Z,44.80
2018-02-10T12:36:09.607Z,53.00
2018-02-10T12:38:37.329Z,44.50
2018-02-10T12:41:05.590Z,49.03
2018-02-10T12:43:33.841Z,49.83
2018-02-10T12:46:02.758Z,54.90
2018-02-10T12:48:36.547Z,53.27
2018-02-10T12:51:04.832Z,57.80
2018-02-10T12:53:33.150Z,50.63
2018-02-10T12:56:02.010Z,58.30
2018-02-10T12:58:29.941Z,47.37
2018-02-10T13:00:58.665Z,44.83
2018-02-10T13:03:26.923Z,47.00
2018-02-10T13:05:55.185Z,54.17
2018-02-10T13:08:24.038Z,56.90
2018-02-10T13:10:52.311Z,51.47
2018-02-10T13:13:20.289Z,56.83
2018-02-10T13:15:48.743Z,68.10
2018-02-10T13:18:17.017Z,77.97
2018-02-10T13:20:45.285Z,53.77
2018-02-10T13:23:14.317Z,62.73
2018-02-10T13:25:42.598Z,67.33
2018-02-10T13:28:10.867Z,64.60
2018-02-10T13:30:39.134Z,64.90
2018-02-10T13:33:07.403Z,60.87
2018-02-10T13:35:35.410Z,64.77
2018-02-10T13:38:03.690Z,67.13
2018-02-10T13:40:32.592Z,65.60
2018-02-10T13:43:00.903Z,57.00
2018-02-10T13:45:29.309Z,52.33
2018-02-10T13:47:57.588Z,59.00
2018-02-10T13:50:25.870Z,64.17
2018-02-10T13:52:54.137Z,63.63
2018-02-10T13:55:23.949Z,64.87
2018-02-10T13:57:52.201Z,67.40
2018-02-10T14:00:20.469Z,71.33
2018-02-10T14:02:48.757Z,70.20
2018-02-10T14:05:17.010Z,66.27
2018-02-10T14:07:45.259Z,66.07
2018-02-10T14:10:13.633Z,69.97
2018-02-10T14:12:42.406Z,86.03
2018-02-10T14:15:10.677Z,77.00
2018-02-10T14:17:38.938Z,83.87
2018-02-10T14:20:07.211Z,80.87
2018-02-10T14:22:35.473Z,77.77
2018-02-10T14:25:04.038Z,89.03
2018-02-10T14:27:32.781Z,77.83
2018-02-10T14:30:00.865Z,80.63
2018-02-10T14:32:29.162Z,93.40
2018-02-10T14:34:57.436Z,83.63
2018-02-10T14:37:25.714Z,83.13
2018-02-10T14:39:53.969Z,82.50
2018-02-10T14:42:22.250Z,75.33
2018-02-10T14:44:50.524Z,90.03
2018-02-10T14:47:18.783Z,91.10
2018-02-10T14:49:47.045Z,92.03
2018-02-10T14:52:15.877Z,80.57
2018-02-10T14:54:44.739Z,91.30
2018-02-10T14:57:12.730Z,82.00
2018-02-10T14:59:40.993Z,92.77
2018-02-10T15:02:09.258Z,88.83
2018-02-10T15:04:37.529Z,83.97
2018-02-10T15:07:05.801Z,113.00
2018-02-10T15:09:34.292Z,103.57
2018-02-10T15:12:02.582Z,81.80
2018-02-10T15:14:30.498Z,90.10
2018-02-10T15:16:58.762Z,101.13
2018-02-10T15:19:27.014Z,96.83
2018-02-10T15:21:55.287Z,96.33
2018-02-10T15:24:23.598Z,81.07
2018-02-10T15:26:52.808Z,92.97
2018-02-10T15:29:21.417Z,91.73
2018-02-10T15:32:00.606Z,95.23
2018-02-10T15:34:50.707Z,92.73
2018-02-10T15:37:19.426Z,106.37
2018-02-10T15:39:47.505Z,86.47
2018-02-10T15:42:15.990Z,99.87
2018-02-10T15:44:44.298Z,106.83
2018-02-10T15:47:12.372Z,87.30
2018-02-10T15:49:40.631Z,99.40
2018-02-10T15:52:08.899Z,103.77
2018-02-10T15:54:37.185Z,110.67
2018-02-10T15:57:05.467Z,100.60
2018-02-10T15:59:33.738Z,94.20
2018-02-10T16:02:02.056Z,100.20
2018-02-10T16:04:31.018Z,93.43
2018-02-10T16:06:59.311Z,119.17
2018-02-10T16:09:27.585Z,106.73
2018-02-10T16:11:55.848Z,115.97
2018-02-10T16:14:24.975Z,108.17
2018-02-10T16:16:53.279Z,107.37
2018-02-10T16:19:21.532Z,109.83
2018-02-10T16:21:49.785Z,100.53
2018-02-10T16:24:18.068Z,101.33
2018-02-10T16:26:46.331Z,112.53
2018-02-10T16:29:15.619Z,130.80
2018-02-10T16:31:43.912Z,104.50
2018-02-10T16:34:14.065Z,136.43
2018-02-10T16:36:43.355Z,104.90
2018-02-10T16:39:11.614Z,121.40
2018-02-10T16:41:39.886Z,107.80
2018-02-10T16:44:08.161Z,106.73
2018-02-10T16:46:36.421Z,104.57
2018-02-10T16:49:04.678Z,86.30
2018-02-10T16:51:32.957Z,102.63
2018-02-10T16:54:01.237Z,117.30
2018-02-10T16:56:29.501Z,105.20
2018-02-10T16:58:58.542Z,111.27
2018-02-10T17:01:26.794Z,93.27
2018-02-10T17:03:55.058Z,98.43
2018-02-10T17:06:23.317Z,94.50
2018-02-10T17:08:51.582Z,108.03
2018-02-10T17:11:19.862Z,106.70
2018-02-10T17:13:48.137Z,107.17
2018-02-10T17:16:16.415Z,106.60
2018-02-10T17:18:44.812Z,96.33
2018-02-10T17:21:13.184Z,112.83
2018-02-10T17:23:41.166Z,105.00
2018-02-10T17:26:09.445Z,107.50
2018-02-10T17:28:37.751Z,102.57
2018-02-10T17:31:06.006Z,105.40
2018-02-10T17:33:34.261Z,106.83
2018-02-10T17:36:03.907Z,115.17
2018-02-10T17:38:32.890Z,99.57
2018-02-10T17:41:01.212Z,97.27
2018-02-10T17:43:30.413Z,108.97
2018-02-10T17:45:58.685Z,103.23
2018-02-10T17:48:27.086Z,90.93
2018-02-10T17:50:55.341Z,94.93
2018-02-10T17:53:23.606Z,95.47
2018-02-10T17:55:51.889Z,102.20
2018-02-10T17:58:20.150Z,97.80
2018-02-10T18:00:48.402Z,97.33
2018-02-10T18:03:16.680Z,85.97
2018-02-10T18:05:44.961Z,96.17
2018-02-10T18:08:13.226Z,90.10
2018-02-10T18:10:41.485Z,94.43
2018-02-10T18:13:09.943Z,84.40
2018-02-10T18:15:38.207Z,83.47
2018-02-10T18:18:06.461Z,92.70
2018-02-10T18:20:34.738Z,78.63
2018-02-10T18:23:03.043Z,73.47
2018-02-10T18:25:30.961Z,77.13
2018-02-10T18:27:59.250Z,83.80
2018-02-10T18:30:27.497Z,83.27
2018-02-10T18:32:55.783Z,85.07
2018-02-10T18:35:24.258Z,86.73
2018-02-10T18:37:54.398Z,93.73
2018-02-10T18:40:25.853Z,78.70
2018-02-10T18:42:55.754Z,86.70
2018-02-10T18:45:24.649Z,87.63
2018-02-10T18:47:53.286Z,86.93
2018-02-10T18:50:21.637Z,88.87
2018-02-10T18:52:49.902Z,91.50
2018-02-10T18:55:18.190Z,80.87
2018-02-10T18:57:46.458Z,84.63
2018-02-10T19:00:15.042Z,76.00
2018-02-10T19:02:43.725Z,96.77
2018-02-10T19:05:12.050Z,89.30
2018-02-10T19:07:40.927Z,80.37
2018-02-10T19:10:09.254Z,83.20
2018-02-10T19:12:37.509Z,93.40
2018-02-10T19:15:05.606Z,90.50
2018-02-10T19:17:33.879Z,101.20
2018-02-10T19:20:02.154Z,88.93
2018-02-10T19:22:30.438Z,71.87
2018-02-10T19:24:58.884Z,91.17
2018-02-10T19:27:27.140Z,79.63
2018-02-10T19:29:55.622Z,87.97
2018-02-10T19:32:24.927Z,79.17
2018-02-10T19:34:53.195Z,105.83
2018-02-10T19:37:21.458Z,91.43
2018-02-10T19:39:49.715Z,86.17
2018-02-10T19:42:17.895Z,84.20
2018-02-10T19:44:46.397Z,98.00
2018-02-10T19:47:15.599Z,90.03
2018-02-10T19:49:44.473Z,81.67
2018-02-10T19:52:12.722Z,91.10
2018-02-10T19:54:41.005Z,92.67
2018-02-10T19:57:09.382Z,95.23
2018-02-10T19:59:37.654Z,86.00
2018-02-10T20:02:05.918Z,82.27
2018-02-10T20:04:34.952Z,88.70
2018-02-10T20:07:03.433Z,86.90
2018-02-10T20:09:31.707Z,85.13
2018-02-10T20:11:59.965Z,90.73
2018-02-10T20:14:28.930Z,85.47
2018-02-10T20:16:57.991Z,75.37
2018-02-10T20:19:26.281Z,88.47
2018-02-10T20:21:54.542Z,79.90
2018-02-10T20:24:22.814Z,88.60
2018-02-10T20:26:51.073Z,76.20
2018-02-10T20:29:19.453Z,76.83
2018-02-10T20:31:47.721Z,78.17
2018-02-10T20:34:17.440Z,79.57
2018-02-10T20:36:45.698Z,83.23
2018-02-10T20:39:13.967Z,86.40
2018-02-10T20:41:42.253Z,78.90
2018-02-10T20:44:10.210Z,84.00
2018-02-10T20:46:38.474Z,78.93
2018-02-10T20:49:06.743Z,85.97
2018-02-10T20:51:35.180Z,91.00
2018-02-10T20:54:03.461Z,76.83
2018-02-10T20:56:31.754Z,79.77
2018-02-10T20:59:00.038Z,90.83
2018-02-10T21:01:28.341Z,83.60
2018-02-10T21:03:56.655Z,96.53
2018-02-10T21:06:24.926Z,81.03
2018-02-10T21:08:53.194Z,87.80
2018-02-10T21:11:21.465Z,75.73
2018-02-10T21:13:49.744Z,77.10
2018-02-10T21:16:19.205Z,88.20
2018-02-10T21:18:48.258Z,89.60
2018-02-10T21:21:16.532Z,86.73
2018-02-10T21:23:44.849Z,80.87
2018-02-10T21:26:13.158Z,71.40
2018-02-10T21:28:41.439Z,78.67
2018-02-10T21:31:09.707Z,68.70
2018-02-10T21:33:38.065Z,89.47
2018-02-10T21:36:06.349Z,86.23
2018-02-10T21:38:34.673Z,80.73
2018-02-10T21:41:02.930Z,72.27
2018-02-10T21:43:31.228Z,71.30
2018-02-10T21:45:59.534Z,80.73
2018-02-10T21:48:27.812Z,76.30
2018-02-10T21:50:56.098Z,77.60
2018-02-10T21:53:24.813Z,79.27
2018-02-10T21:55:53.089Z,75.13
2018-02-10T21:58:21.358Z,85.17
2018-02-10T22:00:49.627Z,84.63
2018-02-10T22:03:17.918Z,70.03
2018-02-10T22:05:46.196Z,78.87
2018-02-10T22:08:14.530Z,78.33
2018-02-10T22:10:42.823Z,76.23
2018-02-10T22:13:11.098Z,77.93
2018-02-10T22:15:39.387Z,72.37
2018-02-10T22:18:07.671Z,63.73
2018-02-10T22:20:35.954Z,66.53
2018-02-10T22:23:04.231Z,78.03
2018-02-10T22:25:32.506Z,67.67
2018-02-10T22:28:00.795Z,72.93
2018-02-10T22:30:29.055Z,92.10
2018-02-10T22:32:57.329Z,74.40
2018-02-10T22:35:25.598Z,74.50
2018-02-10T22:37:53.900Z,72.10
2018-02-10T22:40:22.170Z,72.47
2018-02-10T22:42:50.433Z,63.03
2018-02-10T22:45:18.745Z,67.37
2018-02-10T22:47:47.022Z,64.23
2018-02-10T22:50:15.285Z,67.40
2018-02-10T22:52:43.571Z,71.30
2018-02-10T22:55:11.820Z,69.97
2018-02-10T22:57:40.112Z,61.53
2018-02-10T23:00:09.522Z,72.33
2018-02-10T23:02:37.785Z,63.50
2018-02-10T23:05:06.277Z,57.33
2018-02-10T23:07:34.570Z,64.17
2018-02-10T23:10:02.833Z,71.07
2018-02-10T23:12:31.109Z,56.23
2018-02-10T23:14:59.366Z,59.03
2018-02-10T23:17:27.640Z,65.83
2018-02-10T23:19:55.909Z,71.63
2018-02-10T23:22:24.165Z,71.57
2018-02-10T23:24:52.446Z,65.20
2018-02-10T23:27:20.718Z,60.43
2018-02-10T23:29:49.002Z,67.63
2018-02-10T23:32:17.274Z,56.83
2018-02-10T23:34:45.558Z,67.57
2018-02-10T23:37:13.850Z,56.70
2018-02-10T23:39:42.126Z,57.23
2018-02-10T23:42:10.382Z,80.43
2018-02-10T23:44:38.641Z,64.70
2018-02-10T23:47:06.897Z,62.90
2018-02-10T23:49:35.204Z,67.77
2018-02-10T23:52:03.457Z,57.67
2018-02-10T23:54:31.725Z,77.70
2018-02-10T23:56:59.996Z,58.47
2018-02-10T23:59:28.284Z,55.80
